Santa Teresita, Argentina
Current Conditions -  °F | °C
As of 8:00 PM on Saturday 25 Oct 2014 (Local Time) from SAZM Reporting Station
Scattered Clouds Scattered Clouds  
Wind Chill: 64°   Ceiling: Unl
Heat Index: 64°   Visibility: 4mi
Dew Point: 63°   Wind: 9mph
Humidity: 94%   Direction: 70°ENE
Pressure: 29.85"   Gusts: NA
Location:  36.53°S, 56.68°W
Report Text: SAZM 252300Z 07008KT 7000 FEW030 SCT10018/17 Q1011
Loading
Personal Weather Stations






























Interactive Weather Map
Tropical Storm Tracking
New forecast layout! Learn more

10-Day Weather Forecast

Advertisements
Track Severe Weather on mobile